sensor_id;sensor_type;location;lat;lon;timestamp;P1;durP1;ratioP1;P2;durP2;ratioP2
12861;SDS011;6499;66.348;14.134;2023-11-18T00:02:23;6.27;;;2.33;;
12861;SDS011;6499;66.348;14.134;2023-11-18T00:04:50;4.10;;;1.70;;
12861;SDS011;6499;66.348;14.134;2023-11-18T00:07:17;4.13;;;2.53;;
12861;SDS011;6499;66.348;14.134;2023-11-18T00:09:44;4.87;;;2.20;;
12861;SDS011;6499;66.348;14.134;2023-11-18T00:12:11;6.03;;;3.07;;
12861;SDS011;6499;66.348;14.134;2023-11-18T00:14:47;11.70;;;6.27;;
12861;SDS011;6499;66.348;14.134;2023-11-18T00:17:14;18.73;;;10.57;;
12861;SDS011;6499;66.348;14.134;2023-11-18T00:19:42;14.73;;;8.97;;
12861;SDS011;6499;66.348;14.134;2023-11-18T00:22:09;14.33;;;8.67;;
12861;SDS011;6499;66.348;14.134;2023-11-18T00:24:36;14.17;;;9.83;;
12861;SDS011;6499;66.348;14.134;2023-11-18T00:27:03;18.13;;;10.53;;
12861;SDS011;6499;66.348;14.134;2023-11-18T00:29:31;16.63;;;9.13;;
12861;SDS011;6499;66.348;14.134;2023-11-18T00:32:03;6.67;;;4.23;;
12861;SDS011;6499;66.348;14.134;2023-11-18T00:34:31;6.43;;;4.27;;
12861;SDS011;6499;66.348;14.134;2023-11-18T00:36:58;9.33;;;5.67;;
12861;SDS011;6499;66.348;14.134;2023-11-18T00:39:25;8.03;;;4.30;;
12861;SDS011;6499;66.348;14.134;2023-11-18T00:41:52;9.47;;;4.63;;
12861;SDS011;6499;66.348;14.134;2023-11-18T00:44:30;10.70;;;4.93;;
12861;SDS011;6499;66.348;14.134;2023-11-18T00:46:56;5.10;;;2.50;;
12861;SDS011;6499;66.348;14.134;2023-11-18T00:49:23;2.67;;;1.73;;
12861;SDS011;6499;66.348;14.134;2023-11-18T00:51:51;3.87;;;1.70;;
12861;SDS011;6499;66.348;14.134;2023-11-18T00:54:21;4.33;;;2.40;;
12861;SDS011;6499;66.348;14.134;2023-11-18T00:56:52;7.17;;;3.13;;
12861;SDS011;6499;66.348;14.134;2023-11-18T00:59:18;5.77;;;3.17;;
12861;SDS011;6499;66.348;14.134;2023-11-18T01:01:45;5.80;;;2.53;;
12861;SDS011;6499;66.348;14.134;2023-11-18T01:04:12;6.73;;;3.30;;
12861;SDS011;6499;66.348;14.134;2023-11-18T01:06:38;5.27;;;3.03;;
12861;SDS011;6499;66.348;14.134;2023-11-18T01:09:05;4.17;;;2.40;;
12861;SDS011;6499;66.348;14.134;2023-11-18T01:11:37;4.23;;;2.40;;
12861;SDS011;6499;66.348;14.134;2023-11-18T01:14:04;4.67;;;2.70;;
12861;SDS011;6499;66.348;14.134;2023-11-18T01:16:31;5.37;;;2.60;;
12861;SDS011;6499;66.348;14.134;2023-11-18T01:18:58;6.60;;;2.90;;
12861;SDS011;6499;66.348;14.134;2023-11-18T01:21:25;5.30;;;2.50;;
12861;SDS011;6499;66.348;14.134;2023-11-18T01:23:52;3.10;;;2.20;;
12861;SDS011;6499;66.348;14.134;2023-11-18T01:26:19;4.27;;;2.27;;
12861;SDS011;6499;66.348;14.134;2023-11-18T01:28:48;3.43;;;1.90;;
12861;SDS011;6499;66.348;14.134;2023-11-18T01:31:15;3.60;;;1.90;;
12861;SDS011;6499;66.348;14.134;2023-11-18T01:33:42;5.43;;;2.27;;
12861;SDS011;6499;66.348;14.134;2023-11-18T01:36:10;3.50;;;1.90;;
12861;SDS011;6499;66.348;14.134;2023-11-18T01:38:50;3.60;;;2.03;;
12861;SDS011;6499;66.348;14.134;2023-11-18T01:41:16;4.30;;;1.80;;
12861;SDS011;6499;66.348;14.134;2023-11-18T01:43:47;3.93;;;2.00;;
12861;SDS011;6499;66.348;14.134;2023-11-18T01:46:17;2.50;;;1.53;;
12861;SDS011;6499;66.348;14.134;2023-11-18T01:48:45;2.53;;;1.47;;
12861;SDS011;6499;66.348;14.134;2023-11-18T01:51:11;1.50;;;1.00;;
12861;SDS011;6499;66.348;14.134;2023-11-18T01:53:39;1.83;;;1.13;;
12861;SDS011;6499;66.348;14.134;2023-11-18T01:56:09;1.97;;;1.27;;
12861;SDS011;6499;66.348;14.134;2023-11-18T01:58:37;2.17;;;1.30;;
12861;SDS011;6499;66.348;14.134;2023-11-18T02:01:07;1.33;;;0.90;;
12861;SDS011;6499;66.348;14.134;2023-11-18T02:03:35;2.37;;;1.00;;
12861;SDS011;6499;66.348;14.134;2023-11-18T02:06:03;1.53;;;0.97;;
12861;SDS011;6499;66.348;14.134;2023-11-18T02:08:31;2.00;;;0.90;;
12861;SDS011;6499;66.348;14.134;2023-11-18T02:11:01;3.00;;;1.20;;
12861;SDS011;6499;66.348;14.134;2023-11-18T02:13:36;3.17;;;1.20;;
12861;SDS011;6499;66.348;14.134;2023-11-18T02:16:06;1.43;;;0.80;;
12861;SDS011;6499;66.348;14.134;2023-11-18T02:18:34;1.70;;;1.10;;
12861;SDS011;6499;66.348;14.134;2023-11-18T02:21:01;2.90;;;1.07;;
12861;SDS011;6499;66.348;14.134;2023-11-18T02:23:28;1.63;;;1.10;;
12861;SDS011;6499;66.348;14.134;2023-11-18T02:25:57;1.63;;;1.00;;
12861;SDS011;6499;66.348;14.134;2023-11-18T02:28:26;1.70;;;0.90;;
12861;SDS011;6499;66.348;14.134;2023-11-18T02:30:54;1.67;;;1.07;;
12861;SDS011;6499;66.348;14.134;2023-11-18T02:33:25;1.43;;;0.77;;
12861;SDS011;6499;66.348;14.134;2023-11-18T02:35:57;2.87;;;0.97;;
12861;SDS011;6499;66.348;14.134;2023-11-18T02:38:30;1.67;;;0.90;;
12861;SDS011;6499;66.348;14.134;2023-11-18T02:40:59;2.20;;;0.90;;
12861;SDS011;6499;66.348;14.134;2023-11-18T02:43:27;1.10;;;0.70;;
12861;SDS011;6499;66.348;14.134;2023-11-18T02:45:57;1.03;;;0.90;;
12861;SDS011;6499;66.348;14.134;2023-11-18T02:48:26;1.67;;;0.90;;
12861;SDS011;6499;66.348;14.134;2023-11-18T02:50:52;1.33;;;0.83;;
12861;SDS011;6499;66.348;14.134;2023-11-18T02:53:19;1.73;;;0.87;;
12861;SDS011;6499;66.348;14.134;2023-11-18T02:55:46;1.33;;;0.97;;
12861;SDS011;6499;66.348;14.134;2023-11-18T02:58:14;1.50;;;0.90;;
12861;SDS011;6499;66.348;14.134;2023-11-18T03:00:42;1.93;;;1.00;;
12861;SDS011;6499;66.348;14.134;2023-11-18T03:03:09;1.97;;;1.17;;
12861;SDS011;6499;66.348;14.134;2023-11-18T03:05:45;2.40;;;1.57;;
12861;SDS011;6499;66.348;14.134;2023-11-18T03:08:15;2.53;;;1.50;;
12861;SDS011;6499;66.348;14.134;2023-11-18T03:10:41;3.87;;;1.60;;
12861;SDS011;6499;66.348;14.134;2023-11-18T03:13:09;2.80;;;1.70;;
12861;SDS011;6499;66.348;14.134;2023-11-18T03:15:38;3.10;;;1.50;;
12861;SDS011;6499;66.348;14.134;2023-11-18T03:18:05;2.97;;;1.20;;
12861;SDS011;6499;66.348;14.134;2023-11-18T03:20:33;3.00;;;1.20;;
12861;SDS011;6499;66.348;14.134;2023-11-18T03:23:02;2.33;;;1.30;;
12861;SDS011;6499;66.348;14.134;2023-11-18T03:25:32;2.20;;;0.90;;
12861;SDS011;6499;66.348;14.134;2023-11-18T03:28:03;1.80;;;1.07;;
12861;SDS011;6499;66.348;14.134;2023-11-18T03:30:33;1.40;;;1.07;;
12861;SDS011;6499;66.348;14.134;2023-11-18T03:33:03;1.67;;;1.30;;
12861;SDS011;6499;66.348;14.134;2023-11-18T03:35:31;1.47;;;0.80;;
12861;SDS011;6499;66.348;14.134;2023-11-18T03:37:57;1.80;;;1.00;;
12861;SDS011;6499;66.348;14.134;2023-11-18T03:40:24;1.37;;;1.00;;
12861;SDS011;6499;66.348;14.134;2023-11-18T03:42:52;2.27;;;0.90;;
12861;SDS011;6499;66.348;14.134;2023-11-18T03:45:19;1.57;;;1.10;;
12861;SDS011;6499;66.348;14.134;2023-11-18T03:47:46;2.70;;;1.10;;
12861;SDS011;6499;66.348;14.134;2023-11-18T03:50:18;1.20;;;1.10;;
12861;SDS011;6499;66.348;14.134;2023-11-18T03:52:45;1.53;;;0.90;;
12861;SDS011;6499;66.348;14.134;2023-11-18T03:55:12;0.97;;;0.80;;
12861;SDS011;6499;66.348;14.134;2023-11-18T03:57:39;1.87;;;1.23;;
12861;SDS011;6499;66.348;14.134;2023-11-18T04:00:06;1.93;;;1.10;;
12861;SDS011;6499;66.348;14.134;2023-11-18T04:02:33;2.00;;;1.57;;
12861;SDS011;6499;66.348;14.134;2023-11-18T04:05:01;2.53;;;1.47;;
12861;SDS011;6499;66.348;14.134;2023-11-18T04:07:30;11.30;;;4.73;;
12861;SDS011;6499;66.348;14.134;2023-11-18T04:09:56;2.53;;;1.47;;
12861;SDS011;6499;66.348;14.134;2023-11-18T04:12:24;1.70;;;1.00;;
12861;SDS011;6499;66.348;14.134;2023-11-18T04:14:51;1.77;;;1.20;;
12861;SDS011;6499;66.348;14.134;2023-11-18T04:17:21;1.83;;;1.00;;
12861;SDS011;6499;66.348;14.134;2023-11-18T04:19:48;1.77;;;1.07;;
12861;SDS011;6499;66.348;14.134;2023-11-18T04:22:15;1.23;;;1.00;;
12861;SDS011;6499;66.348;14.134;2023-11-18T04:24:45;1.60;;;1.00;;
12861;SDS011;6499;66.348;14.134;2023-11-18T04:27:12;0.77;;;0.77;;
12861;SDS011;6499;66.348;14.134;2023-11-18T04:29:38;1.40;;;1.03;;
12861;SDS011;6499;66.348;14.134;2023-11-18T04:32:05;0.90;;;0.70;;
12861;SDS011;6499;66.348;14.134;2023-11-18T04:34:35;0.97;;;0.83;;
12861;SDS011;6499;66.348;14.134;2023-11-18T04:37:02;2.30;;;1.10;;
12861;SDS011;6499;66.348;14.134;2023-11-18T04:39:31;1.80;;;1.40;;
12861;SDS011;6499;66.348;14.134;2023-11-18T04:41:59;1.10;;;1.00;;
12861;SDS011;6499;66.348;14.134;2023-11-18T04:44:26;1.20;;;0.83;;
12861;SDS011;6499;66.348;14.134;2023-11-18T04:46:56;2.33;;;0.97;;
12861;SDS011;6499;66.348;14.134;2023-11-18T04:49:23;1.40;;;1.10;;
12861;SDS011;6499;66.348;14.134;2023-11-18T04:51:50;1.63;;;1.10;;
12861;SDS011;6499;66.348;14.134;2023-11-18T04:54:17;1.83;;;0.90;;
12861;SDS011;6499;66.348;14.134;2023-11-18T04:56:44;1.13;;;1.03;;
12861;SDS011;6499;66.348;14.134;2023-11-18T04:59:12;1.60;;;0.97;;
12861;SDS011;6499;66.348;14.134;2023-11-18T05:01:39;0.90;;;0.77;;
12861;SDS011;6499;66.348;14.134;2023-11-18T05:04:08;2.27;;;1.03;;
12861;SDS011;6499;66.348;14.134;2023-11-18T05:06:36;3.00;;;1.40;;
12861;SDS011;6499;66.348;14.134;2023-11-18T05:09:03;2.00;;;0.93;;
12861;SDS011;6499;66.348;14.134;2023-11-18T05:11:32;4.07;;;1.30;;
12861;SDS011;6499;66.348;14.134;2023-11-18T05:14:01;1.90;;;1.33;;
12861;SDS011;6499;66.348;14.134;2023-11-18T05:16:30;1.67;;;0.90;;
12861;SDS011;6499;66.348;14.134;2023-11-18T05:18:56;1.37;;;1.00;;
12861;SDS011;6499;66.348;14.134;2023-11-18T05:21:23;1.53;;;1.40;;
12861;SDS011;6499;66.348;14.134;2023-11-18T05:23:50;1.83;;;1.10;;
12861;SDS011;6499;66.348;14.134;2023-11-18T05:26:16;2.10;;;1.27;;
12861;SDS011;6499;66.348;14.134;2023-11-18T05:28:43;1.60;;;1.10;;
12861;SDS011;6499;66.348;14.134;2023-11-18T05:31:15;2.47;;;1.43;;
12861;SDS011;6499;66.348;14.134;2023-11-18T05:33:45;1.83;;;1.27;;
12861;SDS011;6499;66.348;14.134;2023-11-18T05:36:16;2.60;;;1.30;;
12861;SDS011;6499;66.348;14.134;2023-11-18T05:38:52;1.97;;;1.73;;
12861;SDS011;6499;66.348;14.134;2023-11-18T05:41:19;2.80;;;1.97;;
12861;SDS011;6499;66.348;14.134;2023-11-18T05:43:52;2.23;;;1.70;;
12861;SDS011;6499;66.348;14.134;2023-11-18T05:46:22;2.50;;;1.20;;
12861;SDS011;6499;66.348;14.134;2023-11-18T05:48:51;2.17;;;1.43;;
12861;SDS011;6499;66.348;14.134;2023-11-18T05:51:18;2.43;;;1.27;;
12861;SDS011;6499;66.348;14.134;2023-11-18T05:53:45;2.77;;;1.53;;
12861;SDS011;6499;66.348;14.134;2023-11-18T05:56:12;1.97;;;1.10;;
12861;SDS011;6499;66.348;14.134;2023-11-18T05:58:39;2.60;;;1.17;;
12861;SDS011;6499;66.348;14.134;2023-11-18T06:06:43;3.10;;;1.20;;
12861;SDS011;6499;66.348;14.134;2023-11-18T06:09:10;1.37;;;1.00;;
12861;SDS011;6499;66.348;14.134;2023-11-18T06:11:47;1.20;;;1.10;;
12861;SDS011;6499;66.348;14.134;2023-11-18T06:14:14;2.43;;;1.53;;
12861;SDS011;6499;66.348;14.134;2023-11-18T06:16:40;2.60;;;1.80;;
12861;SDS011;6499;66.348;14.134;2023-11-18T06:19:08;2.73;;;1.87;;
12861;SDS011;6499;66.348;14.134;2023-11-18T06:21:35;2.90;;;2.20;;
12861;SDS011;6499;66.348;14.134;2023-11-18T06:24:06;1.40;;;1.17;;
12861;SDS011;6499;66.348;14.134;2023-11-18T06:26:36;3.67;;;3.37;;
12861;SDS011;6499;66.348;14.134;2023-11-18T06:29:03;3.60;;;1.97;;
12861;SDS011;6499;66.348;14.134;2023-11-18T06:31:31;4.60;;;2.27;;
12861;SDS011;6499;66.348;14.134;2023-11-18T06:40:02;1.40;;;1.30;;
12861;SDS011;6499;66.348;14.134;2023-11-18T06:42:41;2.33;;;1.30;;
12861;SDS011;6499;66.348;14.134;2023-11-18T06:45:08;1.30;;;1.10;;
12861;SDS011;6499;66.348;14.134;2023-11-18T06:47:35;1.60;;;1.20;;
12861;SDS011;6499;66.348;14.134;2023-11-18T06:50:03;1.30;;;1.10;;
12861;SDS011;6499;66.348;14.134;2023-11-18T06:52:36;1.47;;;1.20;;
12861;SDS011;6499;66.348;14.134;2023-11-18T06:55:08;1.13;;;1.00;;
12861;SDS011;6499;66.348;14.134;2023-11-18T06:57:37;1.93;;;1.17;;
12861;SDS011;6499;66.348;14.134;2023-11-18T07:00:08;1.77;;;1.07;;
12861;SDS011;6499;66.348;14.134;2023-11-18T07:02:35;4.57;;;2.43;;
12861;SDS011;6499;66.348;14.134;2023-11-18T07:05:02;3.30;;;2.97;;
12861;SDS011;6499;66.348;14.134;2023-11-18T07:07:31;5.70;;;4.30;;
12861;SDS011;6499;66.348;14.134;2023-11-18T07:09:57;4.27;;;3.23;;
12861;SDS011;6499;66.348;14.134;2023-11-18T07:12:26;6.53;;;4.30;;
12861;SDS011;6499;66.348;14.134;2023-11-18T07:14:52;2.57;;;1.90;;
12861;SDS011;6499;66.348;14.134;2023-11-18T07:17:20;4.37;;;3.03;;
12861;SDS011;6499;66.348;14.134;2023-11-18T07:19:47;6.13;;;3.93;;
12861;SDS011;6499;66.348;14.134;2023-11-18T07:22:14;3.57;;;2.47;;
12861;SDS011;6499;66.348;14.134;2023-11-18T07:24:41;4.40;;;3.37;;
12861;SDS011;6499;66.348;14.134;2023-11-18T07:27:08;5.00;;;3.30;;
12861;SDS011;6499;66.348;14.134;2023-11-18T07:29:38;8.57;;;5.13;;
12861;SDS011;6499;66.348;14.134;2023-11-18T07:32:04;3.83;;;2.60;;
12861;SDS011;6499;66.348;14.134;2023-11-18T07:34:31;2.57;;;1.80;;
12861;SDS011;6499;66.348;14.134;2023-11-18T07:36:59;2.13;;;1.60;;
12861;SDS011;6499;66.348;14.134;2023-11-18T07:39:27;1.67;;;0.90;;
12861;SDS011;6499;66.348;14.134;2023-11-18T07:42:09;1.40;;;1.10;;
12861;SDS011;6499;66.348;14.134;2023-11-18T07:44:36;1.77;;;1.20;;
12861;SDS011;6499;66.348;14.134;2023-11-18T07:47:05;1.57;;;1.27;;
12861;SDS011;6499;66.348;14.134;2023-11-18T07:49:31;1.00;;;0.90;;
12861;SDS011;6499;66.348;14.134;2023-11-18T07:51:58;2.13;;;1.20;;
12861;SDS011;6499;66.348;14.134;2023-11-18T07:54:24;2.07;;;1.50;;
12861;SDS011;6499;66.348;14.134;2023-11-18T07:56:55;2.50;;;1.50;;
12861;SDS011;6499;66.348;14.134;2023-11-18T07:59:25;2.23;;;1.40;;
12861;SDS011;6499;66.348;14.134;2023-11-18T08:01:54;2.67;;;1.57;;
12861;SDS011;6499;66.348;14.134;2023-11-18T08:04:25;2.97;;;1.57;;
12861;SDS011;6499;66.348;14.134;2023-11-18T08:06:52;1.53;;;1.27;;
12861;SDS011;6499;66.348;14.134;2023-11-18T08:09:27;2.00;;;1.33;;
12861;SDS011;6499;66.348;14.134;2023-11-18T08:11:56;1.90;;;1.70;;
12861;SDS011;6499;66.348;14.134;2023-11-18T08:14:26;2.20;;;1.77;;
12861;SDS011;6499;66.348;14.134;2023-11-18T08:16:55;3.23;;;2.20;;
12861;SDS011;6499;66.348;14.134;2023-11-18T08:19:31;5.73;;;3.20;;
12861;SDS011;6499;66.348;14.134;2023-11-18T08:21:59;20.07;;;14.10;;
12861;SDS011;6499;66.348;14.134;2023-11-18T08:24:29;7.97;;;7.00;;
12861;SDS011;6499;66.348;14.134;2023-11-18T08:26:59;18.57;;;11.57;;
12861;SDS011;6499;66.348;14.134;2023-11-18T08:29:28;12.20;;;8.03;;
12861;SDS011;6499;66.348;14.134;2023-11-18T08:31:57;7.50;;;5.17;;
12861;SDS011;6499;66.348;14.134;2023-11-18T08:34:24;6.20;;;3.90;;
12861;SDS011;6499;66.348;14.134;2023-11-18T08:36:52;5.53;;;3.37;;
12861;SDS011;6499;66.348;14.134;2023-11-18T08:39:27;6.70;;;4.27;;
12861;SDS011;6499;66.348;14.134;2023-11-18T08:42:00;4.37;;;2.80;;
12861;SDS011;6499;66.348;14.134;2023-11-18T08:44:29;8.57;;;4.43;;
12861;SDS011;6499;66.348;14.134;2023-11-18T08:47:00;6.50;;;3.77;;
12861;SDS011;6499;66.348;14.134;2023-11-18T08:49:33;30.50;;;14.17;;
12861;SDS011;6499;66.348;14.134;2023-11-18T08:52:01;16.70;;;9.83;;
12861;SDS011;6499;66.348;14.134;2023-11-18T08:54:33;13.83;;;7.33;;
12861;SDS011;6499;66.348;14.134;2023-11-18T08:57:03;6.03;;;3.50;;
12861;SDS011;6499;66.348;14.134;2023-11-18T08:59:44;21.83;;;11.63;;
12861;SDS011;6499;66.348;14.134;2023-11-18T09:02:11;6.27;;;3.40;;
12861;SDS011;6499;66.348;14.134;2023-11-18T09:04:40;2.37;;;1.73;;
12861;SDS011;6499;66.348;14.134;2023-11-18T09:07:10;6.73;;;4.13;;
12861;SDS011;6499;66.348;14.134;2023-11-18T09:09:37;10.03;;;6.27;;
12861;SDS011;6499;66.348;14.134;2023-11-18T09:12:05;11.17;;;6.93;;
12861;SDS011;6499;66.348;14.134;2023-11-18T09:14:33;11.60;;;7.43;;
12861;SDS011;6499;66.348;14.134;2023-11-18T09:17:05;12.03;;;7.53;;
12861;SDS011;6499;66.348;14.134;2023-11-18T09:19:35;4.27;;;2.70;;
12861;SDS011;6499;66.348;14.134;2023-11-18T09:22:02;4.40;;;2.70;;
12861;SDS011;6499;66.348;14.134;2023-11-18T09:24:32;5.73;;;3.67;;
12861;SDS011;6499;66.348;14.134;2023-11-18T09:26:59;4.37;;;3.37;;
12861;SDS011;6499;66.348;14.134;2023-11-18T09:29:28;5.97;;;4.73;;
12861;SDS011;6499;66.348;14.134;2023-11-18T09:31:54;6.20;;;4.50;;
12861;SDS011;6499;66.348;14.134;2023-11-18T09:34:23;4.60;;;3.70;;
12861;SDS011;6499;66.348;14.134;2023-11-18T09:36:58;5.53;;;3.43;;
12861;SDS011;6499;66.348;14.134;2023-11-18T09:39:24;6.87;;;5.13;;
12861;SDS011;6499;66.348;14.134;2023-11-18T09:42:07;6.43;;;4.77;;
12861;SDS011;6499;66.348;14.134;2023-11-18T09:44:36;7.60;;;5.47;;
12861;SDS011;6499;66.348;14.134;2023-11-18T09:47:07;5.07;;;4.37;;
12861;SDS011;6499;66.348;14.134;2023-11-18T09:49:43;6.07;;;4.50;;
12861;SDS011;6499;66.348;14.134;2023-11-18T09:52:13;3.37;;;2.53;;
12861;SDS011;6499;66.348;14.134;2023-11-18T09:54:44;2.43;;;1.90;;
12861;SDS011;6499;66.348;14.134;2023-11-18T09:57:14;2.37;;;1.90;;
12861;SDS011;6499;66.348;14.134;2023-11-18T09:59:42;4.67;;;2.57;;
12861;SDS011;6499;66.348;14.134;2023-11-18T10:02:11;4.90;;;2.37;;
12861;SDS011;6499;66.348;14.134;2023-11-18T10:04:38;3.87;;;1.87;;
12861;SDS011;6499;66.348;14.134;2023-11-18T10:07:11;2.33;;;1.80;;
12861;SDS011;6499;66.348;14.134;2023-11-18T10:09:41;5.73;;;1.97;;
12861;SDS011;6499;66.348;14.134;2023-11-18T10:12:08;2.23;;;2.03;;
12861;SDS011;6499;66.348;14.134;2023-11-18T10:14:43;3.40;;;2.20;;
12861;SDS011;6499;66.348;14.134;2023-11-18T10:17:10;3.27;;;2.33;;
12861;SDS011;6499;66.348;14.134;2023-11-18T10:19:50;2.70;;;1.87;;
12861;SDS011;6499;66.348;14.134;2023-11-18T10:22:21;3.30;;;2.47;;
12861;SDS011;6499;66.348;14.134;2023-11-18T10:24:48;2.87;;;2.07;;
12861;SDS011;6499;66.348;14.134;2023-11-18T10:27:14;4.43;;;2.23;;
12861;SDS011;6499;66.348;14.134;2023-11-18T10:29:43;2.50;;;1.67;;
12861;SDS011;6499;66.348;14.134;2023-11-18T10:32:10;5.20;;;3.43;;
12861;SDS011;6499;66.348;14.134;2023-11-18T10:34:44;6.60;;;2.70;;
12861;SDS011;6499;66.348;14.134;2023-11-18T10:37:14;3.57;;;2.10;;
12861;SDS011;6499;66.348;14.134;2023-11-18T10:39:46;3.83;;;2.37;;
12861;SDS011;6499;66.348;14.134;2023-11-18T10:42:13;6.63;;;2.77;;
12861;SDS011;6499;66.348;14.134;2023-11-18T10:44:55;5.60;;;2.40;;
12861;SDS011;6499;66.348;14.134;2023-11-18T10:47:27;5.53;;;2.73;;
12861;SDS011;6499;66.348;14.134;2023-11-18T10:49:54;9.37;;;3.17;;
12861;SDS011;6499;66.348;14.134;2023-11-18T10:52:21;4.10;;;2.47;;
12861;SDS011;6499;66.348;14.134;2023-11-18T10:54:50;5.57;;;2.40;;
12861;SDS011;6499;66.348;14.134;2023-11-18T10:57:19;7.63;;;3.57;;
12861;SDS011;6499;66.348;14.134;2023-11-18T11:00:00;7.47;;;3.90;;
12861;SDS011;6499;66.348;14.134;2023-11-18T11:02:30;4.57;;;2.80;;
12861;SDS011;6499;66.348;14.134;2023-11-18T11:05:03;5.43;;;3.33;;
12861;SDS011;6499;66.348;14.134;2023-11-18T11:07:29;3.83;;;1.93;;
12861;SDS011;6499;66.348;14.134;2023-11-18T11:09:59;3.00;;;1.73;;
12861;SDS011;6499;66.348;14.134;2023-11-18T11:12:29;4.73;;;2.43;;
12861;SDS011;6499;66.348;14.134;2023-11-18T11:15:01;5.63;;;2.43;;
12861;SDS011;6499;66.348;14.134;2023-11-18T11:17:30;4.80;;;2.50;;
12861;SDS011;6499;66.348;14.134;2023-11-18T11:20:03;4.93;;;3.50;;
12861;SDS011;6499;66.348;14.134;2023-11-18T11:22:46;6.97;;;4.00;;
12861;SDS011;6499;66.348;14.134;2023-11-18T11:25:16;7.60;;;4.73;;
12861;SDS011;6499;66.348;14.134;2023-11-18T11:27:50;7.10;;;5.00;;
12861;SDS011;6499;66.348;14.134;2023-11-18T11:30:28;7.73;;;5.10;;
12861;SDS011;6499;66.348;14.134;2023-11-18T11:32:58;10.97;;;5.83;;
12861;SDS011;6499;66.348;14.134;2023-11-18T11:35:29;5.67;;;3.03;;
12861;SDS011;6499;66.348;14.134;2023-11-18T11:37:58;21.47;;;6.37;;
12861;SDS011;6499;66.348;14.134;2023-11-18T11:40:29;16.93;;;6.30;;
12861;SDS011;6499;66.348;14.134;2023-11-18T11:42:56;6.37;;;2.57;;
12861;SDS011;6499;66.348;14.134;2023-11-18T11:45:26;31.13;;;9.27;;
12861;SDS011;6499;66.348;14.134;2023-11-18T11:47:57;3.30;;;2.20;;
12861;SDS011;6499;66.348;14.134;2023-11-18T11:50:42;1.73;;;1.30;;
12861;SDS011;6499;66.348;14.134;2023-11-18T11:53:14;2.47;;;1.53;;
12861;SDS011;6499;66.348;14.134;2023-11-18T11:55:44;2.70;;;1.70;;
12861;SDS011;6499;66.348;14.134;2023-11-18T11:58:28;2.77;;;1.70;;
12861;SDS011;6499;66.348;14.134;2023-11-18T12:00:56;2.87;;;1.37;;
12861;SDS011;6499;66.348;14.134;2023-11-18T12:03:24;3.53;;;1.93;;
12861;SDS011;6499;66.348;14.134;2023-11-18T12:05:54;4.27;;;1.80;;
12861;SDS011;6499;66.348;14.134;2023-11-18T12:08:24;2.60;;;1.77;;
12861;SDS011;6499;66.348;14.134;2023-11-18T12:10:51;2.33;;;1.33;;
12861;SDS011;6499;66.348;14.134;2023-11-18T12:13:18;4.47;;;2.50;;
12861;SDS011;6499;66.348;14.134;2023-11-18T12:15:51;3.67;;;2.43;;
12861;SDS011;6499;66.348;14.134;2023-11-18T12:18:30;3.70;;;2.20;;
12861;SDS011;6499;66.348;14.134;2023-11-18T12:20:59;5.03;;;2.20;;
12861;SDS011;6499;66.348;14.134;2023-11-18T12:23:27;4.13;;;2.40;;
12861;SDS011;6499;66.348;14.134;2023-11-18T12:25:55;3.73;;;2.03;;
12861;SDS011;6499;66.348;14.134;2023-11-18T12:28:24;3.60;;;2.20;;
12861;SDS011;6499;66.348;14.134;2023-11-18T12:30:53;4.40;;;2.60;;
12861;SDS011;6499;66.348;14.134;2023-11-18T12:33:22;5.03;;;2.40;;
12861;SDS011;6499;66.348;14.134;2023-11-18T12:38:47;3.60;;;2.53;;
12861;SDS011;6499;66.348;14.134;2023-11-18T12:41:27;3.27;;;2.10;;
12861;SDS011;6499;66.348;14.134;2023-11-18T12:44:02;2.60;;;2.00;;
12861;SDS011;6499;66.348;14.134;2023-11-18T12:46:47;4.73;;;2.60;;
12861;SDS011;6499;66.348;14.134;2023-11-18T12:49:16;4.63;;;2.10;;
12861;SDS011;6499;66.348;14.134;2023-11-18T12:51:45;3.37;;;2.53;;
12861;SDS011;6499;66.348;14.134;2023-11-18T12:54:14;4.17;;;3.00;;
12861;SDS011;6499;66.348;14.134;2023-11-18T12:56:41;5.27;;;3.20;;
12861;SDS011;6499;66.348;14.134;2023-11-18T12:59:13;3.43;;;1.87;;
12861;SDS011;6499;66.348;14.134;2023-11-18T13:01:42;2.20;;;2.00;;
12861;SDS011;6499;66.348;14.134;2023-11-18T13:04:16;3.00;;;1.87;;
12861;SDS011;6499;66.348;14.134;2023-11-18T13:06:44;2.33;;;1.90;;
12861;SDS011;6499;66.348;14.134;2023-11-18T13:09:11;2.27;;;2.00;;
12861;SDS011;6499;66.348;14.134;2023-11-18T13:11:52;3.57;;;2.30;;
12861;SDS011;6499;66.348;14.134;2023-11-18T13:14:21;3.87;;;2.17;;
12861;SDS011;6499;66.348;14.134;2023-11-18T13:16:50;3.83;;;2.37;;
12861;SDS011;6499;66.348;14.134;2023-11-18T13:19:23;3.60;;;2.23;;
12861;SDS011;6499;66.348;14.134;2023-11-18T13:21:49;2.50;;;2.10;;
12861;SDS011;6499;66.348;14.134;2023-11-18T13:24:16;2.70;;;2.07;;
12861;SDS011;6499;66.348;14.134;2023-11-18T13:26:43;3.63;;;2.70;;
12861;SDS011;6499;66.348;14.134;2023-11-18T13:29:11;4.80;;;2.67;;
12861;SDS011;6499;66.348;14.134;2023-11-18T13:31:38;4.20;;;2.37;;
12861;SDS011;6499;66.348;14.134;2023-11-18T13:34:05;4.33;;;2.63;;
12861;SDS011;6499;66.348;14.134;2023-11-18T13:36:32;5.47;;;3.40;;
12861;SDS011;6499;66.348;14.134;2023-11-18T13:38:59;3.70;;;2.17;;
12861;SDS011;6499;66.348;14.134;2023-11-18T13:41:29;4.37;;;2.67;;
12861;SDS011;6499;66.348;14.134;2023-11-18T13:43:56;5.63;;;3.57;;
12861;SDS011;6499;66.348;14.134;2023-11-18T13:46:24;5.93;;;3.83;;
12861;SDS011;6499;66.348;14.134;2023-11-18T13:48:51;8.20;;;5.30;;
12861;SDS011;6499;66.348;14.134;2023-11-18T13:51:19;11.60;;;6.90;;
12861;SDS011;6499;66.348;14.134;2023-11-18T13:53:49;11.70;;;7.33;;
12861;SDS011;6499;66.348;14.134;2023-11-18T13:56:18;16.13;;;9.90;;
12861;SDS011;6499;66.348;14.134;2023-11-18T13:58:45;13.23;;;8.67;;
12861;SDS011;6499;66.348;14.134;2023-11-18T14:01:15;10.70;;;7.20;;
12861;SDS011;6499;66.348;14.134;2023-11-18T14:03:43;6.47;;;4.03;;
12861;SDS011;6499;66.348;14.134;2023-11-18T14:06:13;7.40;;;4.37;;
12861;SDS011;6499;66.348;14.134;2023-11-18T14:08:42;6.23;;;3.23;;
12861;SDS011;6499;66.348;14.134;2023-11-18T14:11:09;6.40;;;3.90;;
12861;SDS011;6499;66.348;14.134;2023-11-18T14:13:36;10.10;;;4.77;;
12861;SDS011;6499;66.348;14.134;2023-11-18T14:16:03;8.27;;;4.53;;
12861;SDS011;6499;66.348;14.134;2023-11-18T14:18:34;7.27;;;4.70;;
12861;SDS011;6499;66.348;14.134;2023-11-18T14:21:03;14.43;;;12.80;;
12861;SDS011;6499;66.348;14.134;2023-11-18T14:23:30;3.80;;;2.20;;
12861;SDS011;6499;66.348;14.134;2023-11-18T14:25:57;3.67;;;2.33;;
12861;SDS011;6499;66.348;14.134;2023-11-18T14:28:24;3.67;;;2.53;;
12861;SDS011;6499;66.348;14.134;2023-11-18T14:30:52;3.00;;;2.17;;
12861;SDS011;6499;66.348;14.134;2023-11-18T14:33:19;2.87;;;1.30;;
12861;SDS011;6499;66.348;14.134;2023-11-18T14:35:46;1.90;;;1.60;;
12861;SDS011;6499;66.348;14.134;2023-11-18T14:38:14;2.47;;;1.40;;
12861;SDS011;6499;66.348;14.134;2023-11-18T14:40:40;3.10;;;1.60;;
12861;SDS011;6499;66.348;14.134;2023-11-18T14:43:07;3.20;;;2.07;;
12861;SDS011;6499;66.348;14.134;2023-11-18T14:45:34;3.93;;;2.57;;
12861;SDS011;6499;66.348;14.134;2023-11-18T14:48:02;3.13;;;1.77;;
12861;SDS011;6499;66.348;14.134;2023-11-18T14:50:29;3.43;;;2.50;;
12861;SDS011;6499;66.348;14.134;2023-11-18T14:52:56;5.13;;;2.87;;
12861;SDS011;6499;66.348;14.134;2023-11-18T14:55:26;5.47;;;3.23;;
12861;SDS011;6499;66.348;14.134;2023-11-18T14:57:55;7.20;;;4.13;;
12861;SDS011;6499;66.348;14.134;2023-11-18T15:00:21;4.47;;;2.90;;
12861;SDS011;6499;66.348;14.134;2023-11-18T15:02:50;7.90;;;3.90;;
12861;SDS011;6499;66.348;14.134;2023-11-18T15:05:17;7.60;;;4.47;;
12861;SDS011;6499;66.348;14.134;2023-11-18T15:07:45;4.27;;;2.90;;
12861;SDS011;6499;66.348;14.134;2023-11-18T15:10:13;5.43;;;2.70;;
12861;SDS011;6499;66.348;14.134;2023-11-18T15:12:41;11.80;;;7.00;;